sensor_id;sensor_type;location;lat;lon;timestamp;temperature;humidity
11454;DHT22;5783;55.174;61.310;2022-12-20T00:01:36;14.10;33.70
11454;DHT22;5783;55.174;61.310;2022-12-20T00:04:05;14.20;33.20
11454;DHT22;5783;55.174;61.310;2022-12-20T00:06:35;14.30;33.50
11454;DHT22;5783;55.174;61.310;2022-12-20T00:09:07;14.30;33.30
11454;DHT22;5783;55.174;61.310;2022-12-20T00:11:39;14.40;33.40
11454;DHT22;5783;55.174;61.310;2022-12-20T00:14:09;14.30;33.10
11454;DHT22;5783;55.174;61.310;2022-12-20T00:16:38;14.30;33.40
11454;DHT22;5783;55.174;61.310;2022-12-20T00:19:09;14.20;33.00
11454;DHT22;5783;55.174;61.310;2022-12-20T00:21:39;14.10;33.20
11454;DHT22;5783;55.174;61.310;2022-12-20T00:24:09;14.00;33.30
11454;DHT22;5783;55.174;61.310;2022-12-20T00:26:38;14.00;33.40
11454;DHT22;5783;55.174;61.310;2022-12-20T00:29:08;14.00;33.30
11454;DHT22;5783;55.174;61.310;2022-12-20T00:31:37;14.10;33.00
11454;DHT22;5783;55.174;61.310;2022-12-20T00:34:06;14.10;33.10
11454;DHT22;5783;55.174;61.310;2022-12-20T00:36:35;14.10;33.30
11454;DHT22;5783;55.174;61.310;2022-12-20T00:39:04;14.00;32.50
11454;DHT22;5783;55.174;61.310;2022-12-20T00:41:34;13.90;32.70
11454;DHT22;5783;55.174;61.310;2022-12-20T00:44:03;13.90;33.10
11454;DHT22;5783;55.174;61.310;2022-12-20T00:46:33;13.90;33.10
11454;DHT22;5783;55.174;61.310;2022-12-20T00:49:02;13.90;32.60
11454;DHT22;5783;55.174;61.310;2022-12-20T00:51:32;13.90;32.90
11454;DHT22;5783;55.174;61.310;2022-12-20T00:54:02;14.00;32.40
11454;DHT22;5783;55.174;61.310;2022-12-20T00:56:31;13.90;32.70
11454;DHT22;5783;55.174;61.310;2022-12-20T00:59:00;13.90;32.80
11454;DHT22;5783;55.174;61.310;2022-12-20T01:01:31;13.70;32.00
11454;DHT22;5783;55.174;61.310;2022-12-20T01:04:02;13.60;32.90
11454;DHT22;5783;55.174;61.310;2022-12-20T01:06:31;13.60;32.20
11454;DHT22;5783;55.174;61.310;2022-12-20T01:09:00;13.60;32.80
11454;DHT22;5783;55.174;61.310;2022-12-20T01:11:32;13.50;32.70
11454;DHT22;5783;55.174;61.310;2022-12-20T01:14:05;13.40;33.10
11454;DHT22;5783;55.174;61.310;2022-12-20T01:16:37;13.40;33.00
11454;DHT22;5783;55.174;61.310;2022-12-20T01:19:07;13.30;33.30
11454;DHT22;5783;55.174;61.310;2022-12-20T01:21:37;13.20;33.10
11454;DHT22;5783;55.174;61.310;2022-12-20T01:24:08;13.30;33.60
11454;DHT22;5783;55.174;61.310;2022-12-20T01:26:37;13.30;33.40
11454;DHT22;5783;55.174;61.310;2022-12-20T01:29:07;13.20;34.40
11454;DHT22;5783;55.174;61.310;2022-12-20T01:31:36;13.20;32.70
11454;DHT22;5783;55.174;61.310;2022-12-20T01:34:05;13.30;33.40
11454;DHT22;5783;55.174;61.310;2022-12-20T01:36:36;13.30;33.30
11454;DHT22;5783;55.174;61.310;2022-12-20T01:39:24;13.30;33.20
11454;DHT22;5783;55.174;61.310;2022-12-20T01:41:54;13.30;33.00
11454;DHT22;5783;55.174;61.310;2022-12-20T01:46:56;13.30;32.90
11454;DHT22;5783;55.174;61.310;2022-12-20T01:49:45;13.40;33.20
11454;DHT22;5783;55.174;61.310;2022-12-20T01:55:25;13.40;33.00
11454;DHT22;5783;55.174;61.310;2022-12-20T02:00:27;13.50;32.70
11454;DHT22;5783;55.174;61.310;2022-12-20T02:02:58;13.50;32.80
11454;DHT22;5783;55.174;61.310;2022-12-20T02:05:33;13.50;32.40
11454;DHT22;5783;55.174;61.310;2022-12-20T02:08:00;13.40;32.50
11454;DHT22;5783;55.174;61.310;2022-12-20T02:16:12;13.60;32.10
11454;DHT22;5783;55.174;61.310;2022-12-20T02:30:22;13.70;32.20
11454;DHT22;5783;55.174;61.310;2022-12-20T02:33:12;13.70;32.20
11454;DHT22;5783;55.174;61.310;2022-12-20T02:35:42;13.70;32.30
11454;DHT22;5783;55.174;61.310;2022-12-20T02:44:12;13.90;31.90
11454;DHT22;5783;55.174;61.310;2022-12-20T02:47:02;13.80;32.10
11454;DHT22;5783;55.174;61.310;2022-12-20T02:49:34;13.90;32.30
11454;DHT22;5783;55.174;61.310;2022-12-20T02:52:07;13.90;32.00
11454;DHT22;5783;55.174;61.310;2022-12-20T02:54:37;13.90;32.00
11454;DHT22;5783;55.174;61.310;2022-12-20T03:02:48;13.80;32.30
11454;DHT22;5783;55.174;61.310;2022-12-20T03:05:42;13.80;32.10
11454;DHT22;5783;55.174;61.310;2022-12-20T03:08:09;13.80;32.30
11454;DHT22;5783;55.174;61.310;2022-12-20T03:10:38;13.80;32.50
11454;DHT22;5783;55.174;61.310;2022-12-20T03:13:07;13.80;32.30
11454;DHT22;5783;55.174;61.310;2022-12-20T03:15:37;13.90;32.10
11454;DHT22;5783;55.174;61.310;2022-12-20T03:18:06;13.90;31.90
11454;DHT22;5783;55.174;61.310;2022-12-20T03:20:35;13.90;31.90
11454;DHT22;5783;55.174;61.310;2022-12-20T03:23:04;14.00;32.00
11454;DHT22;5783;55.174;61.310;2022-12-20T03:25:34;14.00;31.80
11454;DHT22;5783;55.174;61.310;2022-12-20T03:28:03;14.10;31.90
11454;DHT22;5783;55.174;61.310;2022-12-20T03:30:32;14.10;32.00
11454;DHT22;5783;55.174;61.310;2022-12-20T03:33:01;14.10;31.80
11454;DHT22;5783;55.174;61.310;2022-12-20T03:35:31;14.00;31.90
11454;DHT22;5783;55.174;61.310;2022-12-20T03:38:00;14.00;31.90
11454;DHT22;5783;55.174;61.310;2022-12-20T03:40:29;14.00;31.70
11454;DHT22;5783;55.174;61.310;2022-12-20T03:42:58;14.00;31.70
11454;DHT22;5783;55.174;61.310;2022-12-20T03:45:27;14.00;31.50
11454;DHT22;5783;55.174;61.310;2022-12-20T03:47:56;14.00;31.70
11454;DHT22;5783;55.174;61.310;2022-12-20T03:50:25;14.00;31.60
11454;DHT22;5783;55.174;61.310;2022-12-20T03:52:55;14.00;31.70
11454;DHT22;5783;55.174;61.310;2022-12-20T03:55:24;14.00;31.50
11454;DHT22;5783;55.174;61.310;2022-12-20T03:57:53;14.00;31.10
11454;DHT22;5783;55.174;61.310;2022-12-20T04:00:22;13.90;31.40
11454;DHT22;5783;55.174;61.310;2022-12-20T04:02:51;13.90;31.50
11454;DHT22;5783;55.174;61.310;2022-12-20T04:05:21;13.80;31.50
11454;DHT22;5783;55.174;61.310;2022-12-20T04:07:50;13.80;32.00
11454;DHT22;5783;55.174;61.310;2022-12-20T04:10:19;13.80;32.00
11454;DHT22;5783;55.174;61.310;2022-12-20T04:12:48;13.70;32.00
11454;DHT22;5783;55.174;61.310;2022-12-20T04:15:18;13.70;32.00
11454;DHT22;5783;55.174;61.310;2022-12-20T04:17:47;13.70;32.10
11454;DHT22;5783;55.174;61.310;2022-12-20T04:20:16;13.70;32.00
11454;DHT22;5783;55.174;61.310;2022-12-20T04:22:48;13.60;32.10
11454;DHT22;5783;55.174;61.310;2022-12-20T04:25:36;13.70;32.40
11454;DHT22;5783;55.174;61.310;2022-12-20T04:28:06;13.70;32.10
11454;DHT22;5783;55.174;61.310;2022-12-20T04:30:35;13.80;31.80
11454;DHT22;5783;55.174;61.310;2022-12-20T04:33:04;13.80;31.90
11454;DHT22;5783;55.174;61.310;2022-12-20T04:35:33;13.80;31.60
11454;DHT22;5783;55.174;61.310;2022-12-20T04:38:02;13.90;31.90
11454;DHT22;5783;55.174;61.310;2022-12-20T04:40:31;14.00;32.00
11454;DHT22;5783;55.174;61.310;2022-12-20T04:43:01;14.20;30.40
11454;DHT22;5783;55.174;61.310;2022-12-20T04:45:30;14.10;28.80
11454;DHT22;5783;55.174;61.310;2022-12-20T04:47:59;14.10;28.60
11454;DHT22;5783;55.174;61.310;2022-12-20T04:50:28;14.10;28.40
11454;DHT22;5783;55.174;61.310;2022-12-20T04:52:57;14.00;27.40
11454;DHT22;5783;55.174;61.310;2022-12-20T04:55:46;14.10;28.40
11454;DHT22;5783;55.174;61.310;2022-12-20T04:58:15;14.10;28.10
11454;DHT22;5783;55.174;61.310;2022-12-20T05:00:44;14.20;28.50
11454;DHT22;5783;55.174;61.310;2022-12-20T05:03:13;14.20;27.90
11454;DHT22;5783;55.174;61.310;2022-12-20T05:05:42;14.10;27.90
11454;DHT22;5783;55.174;61.310;2022-12-20T05:08:12;14.20;27.40
11454;DHT22;5783;55.174;61.310;2022-12-20T05:10:41;14.00;26.20
11454;DHT22;5783;55.174;61.310;2022-12-20T05:13:10;13.50;26.40
11454;DHT22;5783;55.174;61.310;2022-12-20T05:15:40;13.40;26.80
11454;DHT22;5783;55.174;61.310;2022-12-20T05:18:09;13.10;26.40
11454;DHT22;5783;55.174;61.310;2022-12-20T05:23:09;12.70;27.40
11454;DHT22;5783;55.174;61.310;2022-12-20T05:25:58;13.00;27.80
11454;DHT22;5783;55.174;61.310;2022-12-20T05:28:46;13.10;27.60
11454;DHT22;5783;55.174;61.310;2022-12-20T05:31:17;13.30;28.20
11454;DHT22;5783;55.174;61.310;2022-12-20T05:33:46;13.50;28.50
11454;DHT22;5783;55.174;61.310;2022-12-20T05:36:15;13.80;28.80
11454;DHT22;5783;55.174;61.310;2022-12-20T05:38:44;14.00;28.40
11454;DHT22;5783;55.174;61.310;2022-12-20T05:41:14;14.30;28.00
11454;DHT22;5783;55.174;61.310;2022-12-20T05:43:43;14.30;27.20
11454;DHT22;5783;55.174;61.310;2022-12-20T05:46:12;14.40;27.30
11454;DHT22;5783;55.174;61.310;2022-12-20T05:48:41;14.50;27.20
11454;DHT22;5783;55.174;61.310;2022-12-20T05:51:11;14.60;27.80
11454;DHT22;5783;55.174;61.310;2022-12-20T05:53:40;14.50;26.90
11454;DHT22;5783;55.174;61.310;2022-12-20T05:58:57;14.60;27.10
11454;DHT22;5783;55.174;61.310;2022-12-20T06:01:27;14.80;27.10
11454;DHT22;5783;55.174;61.310;2022-12-20T06:03:56;14.70;26.10
11454;DHT22;5783;55.174;61.310;2022-12-20T06:06:25;14.60;26.70
11454;DHT22;5783;55.174;61.310;2022-12-20T06:08:54;14.60;26.80
11454;DHT22;5783;55.174;61.310;2022-12-20T06:11:23;14.60;27.00
11454;DHT22;5783;55.174;61.310;2022-12-20T06:13:53;14.40;26.60
11454;DHT22;5783;55.174;61.310;2022-12-20T06:16:22;14.30;27.20
11454;DHT22;5783;55.174;61.310;2022-12-20T06:18:52;14.20;26.80
11454;DHT22;5783;55.174;61.310;2022-12-20T06:21:21;14.20;27.60
11454;DHT22;5783;55.174;61.310;2022-12-20T06:23:50;14.30;27.70
11454;DHT22;5783;55.174;61.310;2022-12-20T06:26:20;14.40;27.40
11454;DHT22;5783;55.174;61.310;2022-12-20T06:28:49;14.40;27.00
11454;DHT22;5783;55.174;61.310;2022-12-20T06:31:20;14.40;26.80
11454;DHT22;5783;55.174;61.310;2022-12-20T06:33:49;14.20;26.70
11454;DHT22;5783;55.174;61.310;2022-12-20T06:36:18;14.10;26.80
11454;DHT22;5783;55.174;61.310;2022-12-20T06:38:47;13.60;27.20
11454;DHT22;5783;55.174;61.310;2022-12-20T06:41:16;13.40;27.40
11454;DHT22;5783;55.174;61.310;2022-12-20T06:43:46;13.30;28.00
11454;DHT22;5783;55.174;61.310;2022-12-20T06:46:15;13.30;29.40
11454;DHT22;5783;55.174;61.310;2022-12-20T06:48:44;13.30;27.70
11454;DHT22;5783;55.174;61.310;2022-12-20T06:51:13;13.40;28.10
11454;DHT22;5783;55.174;61.310;2022-12-20T06:53:43;13.40;27.00
11454;DHT22;5783;55.174;61.310;2022-12-20T06:56:12;13.30;27.40
11454;DHT22;5783;55.174;61.310;2022-12-20T06:58:41;13.30;27.70
11454;DHT22;5783;55.174;61.310;2022-12-20T07:01:10;13.30;27.60
11454;DHT22;5783;55.174;61.310;2022-12-20T07:03:39;13.30;27.70
11454;DHT22;5783;55.174;61.310;2022-12-20T07:06:08;13.40;27.70
11454;DHT22;5783;55.174;61.310;2022-12-20T07:08:37;13.50;27.90
11454;DHT22;5783;55.174;61.310;2022-12-20T07:11:07;13.30;26.60
11454;DHT22;5783;55.174;61.310;2022-12-20T07:13:37;13.30;27.20
11454;DHT22;5783;55.174;61.310;2022-12-20T07:16:06;13.30;27.60
11454;DHT22;5783;55.174;61.310;2022-12-20T07:18:35;13.30;27.60
11454;DHT22;5783;55.174;61.310;2022-12-20T07:21:05;13.40;27.90
11454;DHT22;5783;55.174;61.310;2022-12-20T07:23:34;13.60;27.70
11454;DHT22;5783;55.174;61.310;2022-12-20T07:26:03;13.70;27.50
11454;DHT22;5783;55.174;61.310;2022-12-20T07:28:33;13.80;27.30
11454;DHT22;5783;55.174;61.310;2022-12-20T07:31:02;13.80;27.30
11454;DHT22;5783;55.174;61.310;2022-12-20T07:36:20;13.20;26.60
11454;DHT22;5783;55.174;61.310;2022-12-20T07:38:50;13.10;27.40
11454;DHT22;5783;55.174;61.310;2022-12-20T07:41:19;13.10;26.80
11454;DHT22;5783;55.174;61.310;2022-12-20T07:43:48;13.10;27.20
11454;DHT22;5783;55.174;61.310;2022-12-20T07:46:17;13.00;26.70
11454;DHT22;5783;55.174;61.310;2022-12-20T07:57:17;12.40;64.50
11454;DHT22;5783;55.174;61.310;2022-12-20T07:59:48;12.40;65.20
11454;DHT22;5783;55.174;61.310;2022-12-20T08:04:52;12.70;66.50
11454;DHT22;5783;55.174;61.310;2022-12-20T08:07:22;12.80;65.70
11454;DHT22;5783;55.174;61.310;2022-12-20T08:09:52;12.80;65.40
11454;DHT22;5783;55.174;61.310;2022-12-20T08:12:21;12.90;61.30
11454;DHT22;5783;55.174;61.310;2022-12-20T08:17:21;13.30;46.60
11454;DHT22;5783;55.174;61.310;2022-12-20T08:19:50;13.40;48.20
11454;DHT22;5783;55.174;61.310;2022-12-20T08:22:19;13.50;50.90
11454;DHT22;5783;55.174;61.310;2022-12-20T08:24:48;13.60;51.30
11454;DHT22;5783;55.174;61.310;2022-12-20T08:27:17;13.60;51.30
11454;DHT22;5783;55.174;61.310;2022-12-20T08:29:47;13.60;49.80
11454;DHT22;5783;55.174;61.310;2022-12-20T08:32:16;13.60;49.30
11454;DHT22;5783;55.174;61.310;2022-12-20T08:34:45;13.60;48.00
11454;DHT22;5783;55.174;61.310;2022-12-20T08:37:18;13.60;48.40
11454;DHT22;5783;55.174;61.310;2022-12-20T08:39:47;13.60;48.60
11454;DHT22;5783;55.174;61.310;2022-12-20T08:42:16;13.70;48.10
11454;DHT22;5783;55.174;61.310;2022-12-20T08:44:45;14.00;47.20
11454;DHT22;5783;55.174;61.310;2022-12-20T08:47:14;14.10;47.40
11454;DHT22;5783;55.174;61.310;2022-12-20T08:49:43;14.00;48.60
11454;DHT22;5783;55.174;61.310;2022-12-20T08:52:12;13.90;48.60
11454;DHT22;5783;55.174;61.310;2022-12-20T08:54:42;14.00;48.10
11454;DHT22;5783;55.174;61.310;2022-12-20T08:57:11;14.10;48.80
11454;DHT22;5783;55.174;61.310;2022-12-20T08:59:40;14.30;51.90
11454;DHT22;5783;55.174;61.310;2022-12-20T09:02:09;14.50;58.30
11454;DHT22;5783;55.174;61.310;2022-12-20T09:04:38;14.50;58.60
11454;DHT22;5783;55.174;61.310;2022-12-20T09:07:07;14.10;56.20
11454;DHT22;5783;55.174;61.310;2022-12-20T09:09:37;13.80;51.10
11454;DHT22;5783;55.174;61.310;2022-12-20T09:12:06;13.70;54.30
11454;DHT22;5783;55.174;61.310;2022-12-20T09:14:35;13.80;54.10
11454;DHT22;5783;55.174;61.310;2022-12-20T09:17:05;13.90;54.60
11454;DHT22;5783;55.174;61.310;2022-12-20T09:19:34;13.70;53.80
11454;DHT22;5783;55.174;61.310;2022-12-20T09:22:03;13.70;53.70
11454;DHT22;5783;55.174;61.310;2022-12-20T09:24:32;13.80;53.70
11454;DHT22;5783;55.174;61.310;2022-12-20T09:27:01;13.80;53.70
11454;DHT22;5783;55.174;61.310;2022-12-20T09:29:31;13.90;53.20
11454;DHT22;5783;55.174;61.310;2022-12-20T09:32:00;14.00;52.30
11454;DHT22;5783;55.174;61.310;2022-12-20T09:34:29;13.90;52.30
11454;DHT22;5783;55.174;61.310;2022-12-20T09:36:58;13.90;51.80
11454;DHT22;5783;55.174;61.310;2022-12-20T09:39:30;13.70;51.80
11454;DHT22;5783;55.174;61.310;2022-12-20T09:41:59;13.50;50.10
11454;DHT22;5783;55.174;61.310;2022-12-20T09:47:21;13.20;57.80
11454;DHT22;5783;55.174;61.310;2022-12-20T09:49:54;13.30;57.30
11454;DHT22;5783;55.174;61.310;2022-12-20T09:59:19;13.30;56.10
11454;DHT22;5783;55.174;61.310;2022-12-20T10:01:50;13.40;55.70
11454;DHT22;5783;55.174;61.310;2022-12-20T10:17:01;13.50;53.70
11454;DHT22;5783;55.174;61.310;2022-12-20T10:25:32;13.50;56.10
11454;DHT22;5783;55.174;61.310;2022-12-20T10:30:51;13.70;55.20
11454;DHT22;5783;55.174;61.310;2022-12-20T10:33:22;13.90;53.30
11454;DHT22;5783;55.174;61.310;2022-12-20T10:35:52;14.00;54.30
11454;DHT22;5783;55.174;61.310;2022-12-20T10:38:21;14.10;56.00
11454;DHT22;5783;55.174;61.310;2022-12-20T10:41:14;14.20;55.80
11454;DHT22;5783;55.174;61.310;2022-12-20T10:44:01;14.30;54.80
11454;DHT22;5783;55.174;61.310;2022-12-20T10:46:51;14.20;53.70
11454;DHT22;5783;55.174;61.310;2022-12-20T10:49:40;14.30;53.80
11454;DHT22;5783;55.174;61.310;2022-12-20T10:52:12;14.10;52.40
11454;DHT22;5783;55.174;61.310;2022-12-20T10:54:44;13.80;52.40
11454;DHT22;5783;55.174;61.310;2022-12-20T10:57:33;13.80;53.90
11454;DHT22;5783;55.174;61.310;2022-12-20T11:00:04;13.90;53.90
11454;DHT22;5783;55.174;61.310;2022-12-20T11:06:02;13.80;53.10
11454;DHT22;5783;55.174;61.310;2022-12-20T11:08:31;13.80;54.40
11454;DHT22;5783;55.174;61.310;2022-12-20T11:11:21;13.80;53.30
11454;DHT22;5783;55.174;61.310;2022-12-20T11:13:51;13.80;54.10
11454;DHT22;5783;55.174;61.310;2022-12-20T11:16:40;13.80;53.90
11454;DHT22;5783;55.174;61.310;2022-12-20T11:40:15;14.30;53.20
11454;DHT22;5783;55.174;61.310;2022-12-20T12:23:28;13.50;52.60
11454;DHT22;5783;55.174;61.310;2022-12-20T12:28:27;13.90;49.70
11454;DHT22;5783;55.174;61.310;2022-12-20T12:33:32;13.90;47.30
11454;DHT22;5783;55.174;61.310;2022-12-20T13:07:43;11.90;51.30
11454;DHT22;5783;55.174;61.310;2022-12-20T13:13:11;11.30;57.30
11454;DHT22;5783;55.174;61.310;2022-12-20T13:18:26;11.70;55.10
11454;DHT22;5783;55.174;61.310;2022-12-20T13:30:25;12.20;51.90
11454;DHT22;5783;55.174;61.310;2022-12-20T13:32:57;12.20;53.40
11454;DHT22;5783;55.174;61.310;2022-12-20T13:35:29;12.30;53.00
11454;DHT22;5783;55.174;61.310;2022-12-20T13:38:00;12.50;54.90
11454;DHT22;5783;55.174;61.310;2022-12-20T13:44:00;12.50;56.10
11454;DHT22;5783;55.174;61.310;2022-12-20T13:52:30;12.80;57.80
11454;DHT22;5783;55.174;61.310;2022-12-20T14:00:24;13.00;57.90
11454;DHT22;5783;55.174;61.310;2022-12-20T14:02:54;13.00;49.10
11454;DHT22;5783;55.174;61.310;2022-12-20T14:05:26;13.10;55.30
11454;DHT22;5783;55.174;61.310;2022-12-20T14:10:46;13.20;56.70
11454;DHT22;5783;55.174;61.310;2022-12-20T14:13:35;13.30;57.60
11454;DHT22;5783;55.174;61.310;2022-12-20T14:16:24;13.30;59.10
11454;DHT22;5783;55.174;61.310;2022-12-20T14:19:13;13.30;60.30
11454;DHT22;5783;55.174;61.310;2022-12-20T14:21:44;13.30;60.00
11454;DHT22;5783;55.174;61.310;2022-12-20T14:24:16;13.30;59.40
11454;DHT22;5783;55.174;61.310;2022-12-20T14:26:47;13.30;59.40
11454;DHT22;5783;55.174;61.310;2022-12-20T14:29:23;13.30;60.20
11454;DHT22;5783;55.174;61.310;2022-12-20T14:31:50;13.40;57.70
11454;DHT22;5783;55.174;61.310;2022-12-20T14:34:39;13.40;58.50
11454;DHT22;5783;55.174;61.310;2022-12-20T14:37:30;13.50;61.90
11454;DHT22;5783;55.174;61.310;2022-12-20T14:40:19;13.50;63.80
11454;DHT22;5783;55.174;61.310;2022-12-20T14:42:49;13.40;63.00
11454;DHT22;5783;55.174;61.310;2022-12-20T14:48:28;13.30;62.50
11454;DHT22;5783;55.174;61.310;2022-12-20T14:51:18;13.30;61.60
11454;DHT22;5783;55.174;61.310;2022-12-20T14:53:50;13.30;61.10
11454;DHT22;5783;55.174;61.310;2022-12-20T14:56:21;13.20;60.20
11454;DHT22;5783;55.174;61.310;2022-12-20T15:04:30;13.10;81.20
11454;DHT22;5783;55.174;61.310;2022-12-20T15:07:01;13.30;74.30
11454;DHT22;5783;55.174;61.310;2022-12-20T15:09:30;13.20;72.90
11454;DHT22;5783;55.174;61.310;2022-12-20T15:12:01;13.10;71.80
11454;DHT22;5783;55.174;61.310;2022-12-20T15:14:50;13.10;67.90
11454;DHT22;5783;55.174;61.310;2022-12-20T15:17:19;13.10;64.90
11454;DHT22;5783;55.174;61.310;2022-12-20T15:19:48;13.10;64.00
11454;DHT22;5783;55.174;61.310;2022-12-20T15:22:18;13.20;64.60
11454;DHT22;5783;55.174;61.310;2022-12-20T15:24:48;13.20;64.50
11454;DHT22;5783;55.174;61.310;2022-12-20T15:27:17;13.30;64.40
11454;DHT22;5783;55.174;61.310;2022-12-20T15:29:46;13.30;64.70
11454;DHT22;5783;55.174;61.310;2022-12-20T15:32:34;13.30;64.00
11454;DHT22;5783;55.174;61.310;2022-12-20T15:35:04;13.30;63.90
11454;DHT22;5783;55.174;61.310;2022-12-20T15:37:34;13.30;63.90
11454;DHT22;5783;55.174;61.310;2022-12-20T15:40:04;13.30;63.70
11454;DHT22;5783;55.174;61.310;2022-12-20T15:42:33;13.30;64.30
11454;DHT22;5783;55.174;61.310;2022-12-20T15:45:03;13.40;67.80
11454;DHT22;5783;55.174;61.310;2022-12-20T15:47:32;13.40;68.60
11454;DHT22;5783;55.174;61.310;2022-12-20T15:50:01;13.40;69.10
11454;DHT22;5783;55.174;61.310;2022-12-20T15:52:31;13.40;70.60
11454;DHT22;5783;55.174;61.310;2022-12-20T15:55:00;13.50;70.40
11454;DHT22;5783;55.174;61.310;2022-12-20T15:57:32;13.50;72.50
11454;DHT22;5783;55.174;61.310;2022-12-20T16:00:01;13.50;66.20
11454;DHT22;5783;55.174;61.310;2022-12-20T16:02:33;13.60;66.20
11454;DHT22;5783;55.174;61.310;2022-12-20T16:05:03;13.60;66.50
11454;DHT22;5783;55.174;61.310;2022-12-20T16:07:32;13.70;69.40
11454;DHT22;5783;55.174;61.310;2022-12-20T16:10:01;13.70;75.90
11454;DHT22;5783;55.174;61.310;2022-12-20T16:12:33;13.70;75.30
11454;DHT22;5783;55.174;61.310;2022-12-20T16:15:04;13.70;75.80
11454;DHT22;5783;55.174;61.310;2022-12-20T16:17:34;13.80;74.00
11454;DHT22;5783;55.174;61.310;2022-12-20T16:20:03;13.80;31.10
11454;DHT22;5783;55.174;61.310;2022-12-20T16:22:32;13.90;31.10
11454;DHT22;5783;55.174;61.310;2022-12-20T16:25:01;13.80;31.00
11454;DHT22;5783;55.174;61.310;2022-12-20T16:27:31;13.80;31.20
11454;DHT22;5783;55.174;61.310;2022-12-20T16:30:00;13.90;31.10
11454;DHT22;5783;55.174;61.310;2022-12-20T16:32:32;13.90;31.00
11454;DHT22;5783;55.174;61.310;2022-12-20T16:35:01;13.80;30.80
11454;DHT22;5783;55.174;61.310;2022-12-20T16:37:30;13.80;31.00
11454;DHT22;5783;55.174;61.310;2022-12-20T16:39:59;13.90;31.00
11454;DHT22;5783;55.174;61.310;2022-12-20T16:42:30;13.90;30.90
11454;DHT22;5783;55.174;61.310;2022-12-20T16:44:59;13.90;30.90
11454;DHT22;5783;55.174;61.310;2022-12-20T16:47:28;13.90;30.90
11454;DHT22;5783;55.174;61.310;2022-12-20T16:49:58;13.90;30.80
11454;DHT22;5783;55.174;61.310;2022-12-20T16:52:27;14.00;30.90
11454;DHT22;5783;55.174;61.310;2022-12-20T16:54:56;14.00;30.90
11454;DHT22;5783;55.174;61.310;2022-12-20T16:57:25;13.90;30.70
11454;DHT22;5783;55.174;61.310;2022-12-20T16:59:54;13.90;31.00
11454;DHT22;5783;55.174;61.310;2022-12-20T17:02:43;13.80;31.20
11454;DHT22;5783;55.174;61.310;2022-12-20T17:05:33;13.80;31.20
11454;DHT22;5783;55.174;61.310;2022-12-20T17:08:03;13.70;31.40
11454;DHT22;5783;55.174;61.310;2022-12-20T17:10:32;13.70;31.20
11454;DHT22;5783;55.174;61.310;2022-12-20T17:13:01;13.70;31.20
11454;DHT22;5783;55.174;61.310;2022-12-20T17:15:31;13.70;31.20
11454;DHT22;5783;55.174;61.310;2022-12-20T17:18:00;13.70;30.90
11454;DHT22;5783;55.174;61.310;2022-12-20T17:20:29;13.70;31.20
11454;DHT22;5783;55.174;61.310;2022-12-20T17:23:00;13.60;31.60
11454;DHT22;5783;55.174;61.310;2022-12-20T17:25:33;13.70;31.40
11454;DHT22;5783;55.174;61.310;2022-12-20T17:28:01;13.70;31.40
11454;DHT22;5783;55.174;61.310;2022-12-20T17:30:31;13.60;31.30
11454;DHT22;5783;55.174;61.310;2022-12-20T17:33:00;13.60;31.40
11454;DHT22;5783;55.174;61.310;2022-12-20T17:35:31;13.60;31.00
11454;DHT22;5783;55.174;61.310;2022-12-20T17:38:01;13.60;31.10
11454;DHT22;5783;55.174;61.310;2022-12-20T17:40:33;13.60;31.10
11454;DHT22;5783;55.174;61.310;2022-12-20T17:43:02;13.50;31.00
11454;DHT22;5783;55.174;61.310;2022-12-20T17:45:33;13.50;31.30
11454;DHT22;5783;55.174;61.310;2022-12-20T17:48:04;13.50;31.40
11454;DHT22;5783;55.174;61.310;2022-12-20T17:50:34;13.50;31.50
11454;DHT22;5783;55.174;61.310;2022-12-20T17:53:03;13.60;31.60
11454;DHT22;5783;55.174;61.310;2022-12-20T17:55:32;13.60;31.40
11454;DHT22;5783;55.174;61.310;2022-12-20T17:58:01;13.50;31.50
11454;DHT22;5783;55.174;61.310;2022-12-20T18:00:31;13.50;31.60
11454;DHT22;5783;55.174;61.310;2022-12-20T18:03:00;13.50;31.50
11454;DHT22;5783;55.174;61.310;2022-12-20T18:05:29;13.50;31.50
11454;DHT22;5783;55.174;61.310;2022-12-20T18:07:59;13.50;31.70
11454;DHT22;5783;55.174;61.310;2022-12-20T18:10:28;13.50;31.50
11454;DHT22;5783;55.174;61.310;2022-12-20T18:12:57;13.50;31.40
11454;DHT22;5783;55.174;61.310;2022-12-20T18:15:26;13.50;31.20
11454;DHT22;5783;55.174;61.310;2022-12-20T18:17:55;13.50;31.10
11454;DHT22;5783;55.174;61.310;2022-12-20T18:20:24;13.50;31.30
11454;DHT22;5783;55.174;61.310;2022-12-20T18:22:53;13.50;31.00
11454;DHT22;5783;55.174;61.310;2022-12-20T18:25:42;13.60;31.00
11454;DHT22;5783;55.174;61.310;2022-12-20T18:28:11;13.60;31.10
11454;DHT22;5783;55.174;61.310;2022-12-20T18:30:40;13.60;31.00
11454;DHT22;5783;55.174;61.310;2022-12-20T18:33:09;13.60;31.00
11454;DHT22;5783;55.174;61.310;2022-12-20T18:35:38;13.50;31.00
11454;DHT22;5783;55.174;61.310;2022-12-20T18:38:08;13.50;30.80
11454;DHT22;5783;55.174;61.310;2022-12-20T18:40:37;13.60;31.00
11454;DHT22;5783;55.174;61.310;2022-12-20T18:43:07;13.70;31.00
11454;DHT22;5783;55.174;61.310;2022-12-20T18:45:36;13.60;31.00
11454;DHT22;5783;55.174;61.310;2022-12-20T18:48:06;13.50;31.20
11454;DHT22;5783;55.174;61.310;2022-12-20T18:50:35;13.50;31.30
11454;DHT22;5783;55.174;61.310;2022-12-20T18:53:04;13.40;31.40
11454;DHT22;5783;55.174;61.310;2022-12-20T18:55:35;13.30;32.30
11454;DHT22;5783;55.174;61.310;2022-12-20T18:58:05;13.20;72.80
11454;DHT22;5783;55.174;61.310;2022-12-20T19:00:34;13.20;73.80
11454;DHT22;5783;55.174;61.310;2022-12-20T19:03:03;13.20;74.80
11454;DHT22;5783;55.174;61.310;2022-12-20T19:05:33;13.10;73.30
11454;DHT22;5783;55.174;61.310;2022-12-20T19:08:02;13.00;72.80
11454;DHT22;5783;55.174;61.310;2022-12-20T19:10:31;13.00;72.70
11454;DHT22;5783;55.174;61.310;2022-12-20T19:13:00;12.90;75.20
11454;DHT22;5783;55.174;61.310;2022-12-20T19:15:29;13.00;70.20
11454;DHT22;5783;55.174;61.310;2022-12-20T19:17:58;13.10;67.30
11454;DHT22;5783;55.174;61.310;2022-12-20T19:20:28;13.00;65.10
11454;DHT22;5783;55.174;61.310;2022-12-20T19:22:57;13.10;65.90
11454;DHT22;5783;55.174;61.310;2022-12-20T19:25:26;13.10;66.00
11454;DHT22;5783;55.174;61.310;2022-12-20T19:27:56;13.10;66.20
11454;DHT22;5783;55.174;61.310;2022-12-20T19:30:25;13.10;66.20
11454;DHT22;5783;55.174;61.310;2022-12-20T19:32:55;13.00;65.70
11454;DHT22;5783;55.174;61.310;2022-12-20T19:35:24;13.10;65.90
11454;DHT22;5783;55.174;61.310;2022-12-20T19:37:53;13.10;65.70
11454;DHT22;5783;55.174;61.310;2022-12-20T19:40:22;13.10;65.30
11454;DHT22;5783;55.174;61.310;2022-12-20T19:42:52;13.20;65.30
11454;DHT22;5783;55.174;61.310;2022-12-20T19:45:21;13.10;65.50
11454;DHT22;5783;55.174;61.310;2022-12-20T19:47:50;13.00;65.40